createdAt,value
2022-10-20T00:00:59.659Z,84.69
2022-10-20T00:03:26.674Z,85.13
2022-10-20T00:05:53.744Z,84.99
2022-10-20T00:08:20.265Z,85.02
2022-10-20T00:10:56.728Z,85.29
2022-10-20T00:13:24.298Z,84.84
2022-10-20T00:15:55.035Z,84.89
2022-10-20T00:18:22.508Z,84.70
2022-10-20T00:20:49.033Z,84.41
2022-10-20T00:23:15.433Z,84.45
2022-10-20T00:25:41.905Z,84.52
2022-10-20T00:28:08.261Z,84.37
2022-10-20T00:30:34.827Z,84.65
2022-10-20T00:33:02.916Z,84.53
2022-10-20T00:35:30.398Z,84.46
2022-10-20T00:37:57.139Z,84.26
2022-10-20T00:40:24.188Z,84.41
2022-10-20T00:42:50.729Z,84.45
2022-10-20T00:45:19.741Z,84.43
2022-10-20T00:47:51.409Z,84.55
2022-10-20T00:50:21.977Z,84.75
2022-10-20T00:52:48.621Z,84.78
2022-10-20T00:55:20.118Z,84.94
2022-10-20T00:57:49.911Z,84.91
2022-10-20T01:00:17.011Z,84.60
2022-10-20T01:02:44.495Z,84.25
2022-10-20T01:05:11.451Z,84.66
2022-10-20T01:07:38.266Z,85.24
2022-10-20T01:10:05.711Z,85.44
2022-10-20T01:12:56.692Z,85.09
2022-10-20T01:15:35.184Z,85.08
2022-10-20T01:18:11.465Z,85.31
2022-10-20T01:21:20.056Z,85.07
2022-10-20T01:23:46.300Z,85.29
2022-10-20T01:26:40.057Z,85.15
2022-10-20T01:29:18.875Z,85.33
2022-10-20T01:32:05.026Z,85.37
2022-10-20T01:34:36.975Z,85.54
2022-10-20T01:37:28.352Z,85.47
2022-10-20T01:40:06.760Z,85.67
2022-10-20T01:45:05.655Z,85.89
2022-10-20T01:47:32.672Z,85.76
2022-10-20T01:49:59.242Z,85.72
2022-10-20T01:52:28.372Z,85.66
2022-10-20T01:54:54.889Z,85.56
2022-10-20T01:57:30.349Z,85.83
2022-10-20T02:00:09.844Z,86.01
2022-10-20T02:02:44.694Z,85.93
2022-10-20T02:05:36.677Z,85.99
2022-10-20T02:08:26.626Z,86.19
2022-10-20T02:10:56.849Z,86.07
2022-10-20T02:13:23.652Z,86.92
2022-10-20T02:15:53.179Z,86.61
2022-10-20T02:18:26.784Z,86.74
2022-10-20T02:20:55.457Z,86.49
2022-10-20T02:23:22.060Z,86.52
2022-10-20T02:25:53.041Z,86.62
2022-10-20T02:28:20.137Z,86.39
2022-10-20T02:30:47.523Z,86.06
2022-10-20T02:33:16.152Z,86.13
2022-10-20T02:35:50.728Z,86.05
2022-10-20T02:38:17.312Z,86.13
2022-10-20T02:40:43.788Z,86.35
2022-10-20T02:43:10.225Z,86.64
2022-10-20T02:45:36.863Z,86.56
2022-10-20T02:48:06.234Z,86.87
2022-10-20T02:50:34.100Z,87.34
2022-10-20T02:53:00.524Z,87.02
2022-10-20T02:55:26.891Z,86.54
2022-10-20T02:57:53.950Z,87.36
2022-10-20T03:00:20.836Z,87.17
2022-10-20T03:02:48.014Z,87.05
2022-10-20T03:05:14.649Z,86.89
2022-10-20T03:07:41.060Z,86.77
2022-10-20T03:10:08.910Z,87.07
2022-10-20T03:12:35.372Z,87.17
2022-10-20T03:15:01.758Z,86.91
2022-10-20T03:17:28.110Z,87.29
2022-10-20T03:19:54.482Z,87.47
2022-10-20T03:22:20.878Z,86.98
2022-10-20T03:24:47.276Z,87.79
2022-10-20T03:27:14.193Z,87.42
2022-10-20T03:29:40.598Z,87.04
2022-10-20T03:32:06.955Z,87.45
2022-10-20T03:34:33.385Z,87.35
2022-10-20T03:36:59.818Z,87.64
2022-10-20T03:39:26.552Z,87.73
2022-10-20T03:41:52.962Z,87.95
2022-10-20T03:44:19.340Z,87.96
2022-10-20T03:46:45.838Z,88.10
2022-10-20T03:49:12.342Z,87.74
2022-10-20T03:51:38.717Z,87.74
2022-10-20T03:54:05.079Z,87.64
2022-10-20T03:56:31.565Z,87.34
2022-10-20T03:58:58.097Z,87.47
2022-10-20T04:01:30.827Z,87.04
2022-10-20T04:03:57.287Z,87.16
2022-10-20T04:06:23.991Z,87.25
2022-10-20T04:08:50.483Z,87.72
2022-10-20T04:11:16.856Z,88.22
2022-10-20T04:13:43.320Z,88.14
2022-10-20T04:16:09.873Z,87.88
2022-10-20T04:18:36.275Z,87.83
2022-10-20T04:21:02.669Z,87.87
2022-10-20T04:23:29.088Z,87.47
2022-10-20T04:25:55.461Z,87.58
2022-10-20T04:28:21.835Z,87.13
2022-10-20T04:30:48.960Z,87.49
2022-10-20T04:33:15.781Z,87.36
2022-10-20T04:35:42.435Z,87.41
2022-10-20T04:38:08.854Z,87.33
2022-10-20T04:40:35.508Z,87.60
2022-10-20T04:43:01.982Z,87.22
2022-10-20T04:45:28.586Z,87.01
2022-10-20T04:47:55.017Z,87.04
2022-10-20T04:50:21.396Z,87.29
2022-10-20T04:52:47.769Z,87.06
2022-10-20T04:55:14.136Z,87.29
2022-10-20T04:57:40.499Z,87.51
2022-10-20T05:00:07.293Z,87.06
2022-10-20T05:02:33.645Z,86.91
2022-10-20T05:05:00.007Z,87.12
2022-10-20T05:07:29.549Z,87.12
2022-10-20T05:09:55.912Z,86.77
2022-10-20T05:12:22.270Z,86.92
2022-10-20T05:14:48.645Z,86.91
2022-10-20T05:17:15.352Z,86.66
2022-10-20T05:19:41.707Z,86.54
2022-10-20T05:22:08.071Z,86.53
2022-10-20T05:24:34.513Z,86.63
2022-10-20T05:27:00.938Z,87.08
2022-10-20T05:29:27.396Z,86.48
2022-10-20T05:31:53.876Z,86.71
2022-10-20T05:34:20.327Z,86.70
2022-10-20T05:36:46.704Z,86.33
2022-10-20T05:39:13.158Z,86.37
2022-10-20T05:41:39.543Z,86.51
2022-10-20T05:44:08.494Z,87.08
2022-10-20T05:46:38.300Z,87.29
2022-10-20T05:49:04.806Z,86.93
2022-10-20T05:51:34.130Z,87.03
2022-10-20T05:54:00.594Z,86.76
2022-10-20T05:56:28.656Z,86.60
2022-10-20T05:58:55.545Z,86.73
2022-10-20T06:01:24.690Z,86.78
2022-10-20T06:03:58.801Z,86.82
2022-10-20T06:06:29.983Z,86.74
2022-10-20T06:08:58.765Z,87.40
2022-10-20T06:11:25.699Z,87.06
2022-10-20T06:13:53.179Z,86.81
2022-10-20T06:16:26.816Z,86.69
2022-10-20T06:18:53.561Z,86.94
2022-10-20T06:21:31.552Z,86.62
2022-10-20T06:23:59.502Z,86.68
2022-10-20T06:26:29.845Z,86.67
2022-10-20T06:29:02.714Z,86.70
2022-10-20T06:31:39.339Z,86.60
2022-10-20T06:34:07.450Z,86.49
2022-10-20T06:36:37.765Z,86.48
2022-10-20T06:39:05.716Z,86.41
2022-10-20T06:41:33.035Z,86.67
2022-10-20T06:44:00.157Z,86.72
2022-10-20T06:46:31.951Z,86.79
2022-10-20T06:49:03.658Z,86.76
2022-10-20T06:51:30.335Z,86.60
2022-10-20T06:53:56.838Z,87.17
2022-10-20T06:56:24.812Z,86.84
2022-10-20T06:58:53.016Z,86.91
2022-10-20T07:01:27.945Z,86.33
2022-10-20T07:03:56.856Z,86.34
2022-10-20T07:06:25.752Z,86.23
2022-10-20T07:08:59.061Z,86.40
2022-10-20T07:11:27.851Z,86.41
2022-10-20T07:13:54.893Z,86.42
2022-10-20T07:16:25.343Z,86.24
2022-10-20T07:18:51.971Z,86.30
2022-10-20T07:21:20.407Z,86.34
2022-10-20T07:23:47.449Z,86.31
2022-10-20T07:26:18.557Z,86.29
2022-10-20T07:28:46.827Z,86.29
2022-10-20T07:31:19.632Z,85.81
2022-10-20T07:34:00.858Z,86.07
2022-10-20T07:36:36.013Z,85.71
2022-10-20T07:39:04.231Z,86.18
2022-10-20T07:41:30.964Z,86.09
2022-10-20T07:43:57.475Z,85.78
2022-10-20T07:46:24.216Z,85.74
2022-10-20T07:48:50.829Z,85.84
2022-10-20T07:51:29.327Z,85.48
2022-10-20T07:54:00.589Z,85.43
2022-10-20T07:56:30.077Z,85.67
2022-10-20T07:58:57.889Z,85.27
2022-10-20T08:01:24.379Z,85.19
2022-10-20T08:03:50.861Z,85.07
2022-10-20T08:06:17.474Z,85.00
2022-10-20T08:21:18.930Z,84.21
2022-10-20T08:23:47.404Z,84.35
2022-10-20T08:26:18.153Z,84.37
2022-10-20T08:28:44.530Z,84.18
2022-10-20T08:31:10.939Z,83.74
2022-10-20T08:33:37.543Z,83.40
2022-10-20T08:36:06.227Z,83.55
2022-10-20T08:38:32.978Z,83.44
2022-10-20T08:41:01.891Z,83.30
2022-10-20T08:43:28.658Z,83.00
2022-10-20T08:45:55.040Z,82.97
2022-10-20T08:48:26.673Z,82.37
2022-10-20T08:50:53.689Z,82.28
2022-10-20T08:54:29.856Z,81.81
2022-10-20T08:57:37.950Z,81.56
2022-10-20T09:00:24.107Z,81.24
2022-10-20T09:02:50.956Z,81.46
2022-10-20T09:05:23.237Z,81.26
2022-10-20T09:07:57.131Z,81.14
2022-10-20T09:11:20.181Z,80.86
2022-10-20T09:13:51.264Z,81.07
2022-10-20T09:17:00.343Z,80.65
2022-10-20T09:24:11.498Z,80.58
2022-10-20T09:42:21.512Z,81.37
2022-10-20T09:58:44.389Z,81.46
2022-10-20T10:01:45.319Z,81.02
2022-10-20T10:16:38.625Z,81.40
2022-10-20T10:23:24.717Z,81.29
2022-10-20T10:25:56.790Z,81.29
2022-10-20T10:28:40.182Z,81.19
2022-10-20T10:31:07.660Z,80.99
2022-10-20T10:33:34.188Z,80.97
2022-10-20T10:36:07.657Z,81.00
2022-10-20T10:38:35.471Z,81.01
2022-10-20T10:41:17.613Z,81.15
2022-10-20T10:43:54.059Z,81.96
2022-10-20T10:46:27.138Z,81.76
2022-10-20T10:49:05.605Z,81.45
2022-10-20T10:51:50.707Z,81.79
2022-10-20T10:54:29.278Z,82.26
2022-10-20T10:57:16.113Z,82.75
2022-10-20T10:59:43.779Z,83.42
2022-10-20T11:02:18.236Z,83.50
2022-10-20T11:05:22.458Z,83.74
2022-10-20T11:08:16.281Z,84.81
2022-10-20T11:10:54.875Z,84.94
2022-10-20T11:13:42.584Z,85.31
2022-10-20T11:16:34.031Z,85.29
2022-10-20T11:19:28.773Z,86.00
2022-10-20T11:22:04.201Z,86.23
2022-10-20T11:24:42.696Z,86.54
2022-10-20T11:27:12.109Z,86.48
2022-10-20T11:30:16.610Z,86.67
2022-10-20T11:32:47.354Z,86.73
2022-10-20T11:35:32.507Z,87.19
2022-10-20T11:38:18.835Z,87.40
2022-10-20T11:40:49.930Z,87.66
2022-10-20T11:43:27.715Z,88.09
2022-10-20T11:45:55.681Z,88.11
2022-10-20T11:48:31.862Z,88.14
2022-10-20T11:51:16.974Z,88.35
2022-10-20T11:54:01.693Z,88.96
2022-10-20T11:56:49.810Z,89.08
2022-10-20T11:59:48.155Z,89.22
2022-10-20T12:02:17.448Z,89.72
2022-10-20T12:04:56.091Z,89.51
2022-10-20T12:07:29.455Z,89.82
2022-10-20T12:09:57.195Z,90.19
2022-10-20T12:12:35.096Z,90.46
2022-10-20T12:15:18.874Z,90.83
2022-10-20T12:17:46.636Z,90.97
2022-10-20T12:20:22.262Z,91.19
2022-10-20T12:22:54.117Z,91.68
2022-10-20T12:25:26.601Z,91.85
2022-10-20T12:28:20.726Z,91.82
2022-10-20T12:31:04.511Z,91.80
2022-10-20T12:33:50.729Z,92.03
2022-10-20T12:36:16.998Z,92.37
2022-10-20T12:38:49.037Z,91.79
2022-10-20T12:41:35.466Z,91.85
2022-10-20T12:44:04.523Z,91.89
2022-10-20T12:46:32.174Z,92.01
2022-10-20T12:49:05.529Z,91.99
2022-10-20T12:51:34.529Z,92.25
2022-10-20T12:54:04.827Z,92.23
2022-10-20T12:56:37.835Z,92.29
2022-10-20T12:59:23.154Z,92.73
2022-10-20T13:02:08.244Z,92.73
2022-10-20T13:04:54.916Z,92.89
2022-10-20T13:07:46.419Z,93.17
2022-10-20T13:10:31.891Z,93.12
2022-10-20T13:13:01.326Z,93.60
2022-10-20T13:15:52.396Z,93.65
2022-10-20T13:18:26.716Z,93.36
2022-10-20T13:20:53.083Z,93.38
2022-10-20T13:23:29.873Z,93.30
2022-10-20T13:25:58.490Z,93.35
2022-10-20T13:28:27.524Z,93.11
2022-10-20T13:31:02.349Z,93.02
2022-10-20T13:34:02.767Z,93.17
2022-10-20T13:36:38.302Z,93.19
2022-10-20T13:39:14.237Z,93.54
2022-10-20T13:41:53.864Z,92.98
2022-10-20T13:44:35.042Z,92.90
2022-10-20T13:47:29.177Z,93.08
2022-10-20T13:50:13.579Z,93.11
2022-10-20T13:52:48.931Z,93.06
2022-10-20T13:55:21.733Z,92.98
2022-10-20T13:57:55.266Z,92.99
2022-10-20T14:00:30.359Z,93.02
2022-10-20T14:03:21.681Z,93.00
2022-10-20T14:05:48.141Z,93.52
2022-10-20T14:08:17.103Z,93.31
2022-10-20T14:10:49.219Z,93.43
2022-10-20T14:13:21.426Z,93.52
2022-10-20T14:15:50.817Z,93.64
2022-10-20T14:18:24.202Z,93.41
2022-10-20T14:21:02.568Z,93.28
2022-10-20T14:23:35.088Z,93.46
2022-10-20T14:26:03.103Z,93.34
2022-10-20T14:28:32.709Z,93.44
2022-10-20T14:30:59.306Z,93.31
2022-10-20T14:33:25.974Z,93.26
2022-10-20T14:35:57.647Z,93.27
2022-10-20T14:38:29.590Z,93.20
2022-10-20T14:40:57.395Z,93.03
2022-10-20T14:43:26.609Z,92.78
2022-10-20T14:46:13.007Z,92.52
2022-10-20T14:48:43.571Z,92.75
2022-10-20T14:51:30.236Z,92.42
2022-10-20T14:54:31.072Z,92.35
2022-10-20T14:57:07.530Z,92.68
2022-10-20T14:59:38.243Z,92.81
2022-10-20T15:02:17.086Z,92.33
2022-10-20T15:04:44.533Z,91.33
2022-10-20T15:07:10.787Z,90.93
2022-10-20T15:09:43.072Z,90.08
2022-10-20T15:12:17.578Z,89.57
2022-10-20T15:14:47.027Z,89.00
2022-10-20T15:17:37.966Z,87.58
2022-10-20T15:20:29.537Z,85.77
2022-10-20T15:22:56.973Z,85.39
2022-10-20T15:25:24.954Z,84.90
2022-10-20T15:27:51.396Z,85.30
2022-10-20T15:30:22.435Z,84.44
2022-10-20T15:32:49.004Z,85.30
2022-10-20T15:35:18.868Z,85.66
2022-10-20T15:37:51.333Z,86.45
2022-10-20T15:40:18.586Z,87.27
2022-10-20T15:42:45.060Z,87.51
2022-10-20T15:45:21.350Z,88.58
2022-10-20T15:47:48.083Z,89.19
2022-10-20T15:50:14.841Z,89.50
2022-10-20T15:52:41.223Z,89.59
2022-10-20T15:55:28.851Z,89.68
2022-10-20T15:57:56.104Z,90.50
2022-10-20T16:00:24.394Z,90.18
2022-10-20T16:02:51.050Z,89.97
2022-10-20T16:05:23.129Z,90.78
2022-10-20T16:07:54.215Z,91.27
2022-10-20T16:10:25.811Z,91.60
2022-10-20T16:12:52.274Z,91.38
2022-10-20T16:15:18.725Z,91.73
2022-10-20T16:17:45.999Z,91.58
2022-10-20T16:20:13.335Z,91.98
2022-10-20T16:22:40.004Z,92.07
2022-10-20T16:25:06.919Z,92.23
2022-10-20T16:27:34.080Z,92.54
2022-10-20T16:30:00.967Z,92.70
2022-10-20T16:32:32.810Z,93.05
2022-10-20T16:35:01.953Z,92.82
2022-10-20T16:37:28.328Z,92.77
2022-10-20T16:39:54.793Z,92.93
2022-10-20T16:42:21.249Z,93.07
2022-10-20T16:44:47.681Z,93.07
2022-10-20T16:47:14.095Z,93.16
2022-10-20T16:49:40.513Z,93.19
2022-10-20T16:52:06.917Z,93.54
2022-10-20T16:54:33.307Z,93.69
2022-10-20T16:56:59.730Z,93.81
2022-10-20T16:59:26.075Z,93.80
2022-10-20T17:01:53.973Z,93.99
2022-10-20T17:04:20.343Z,93.83
2022-10-20T17:06:46.710Z,94.28
2022-10-20T17:09:13.091Z,94.38
2022-10-20T17:11:39.500Z,94.04
2022-10-20T17:14:05.863Z,94.25
2022-10-20T17:16:33.906Z,94.32
2022-10-20T17:19:01.476Z,94.50
2022-10-20T17:21:29.341Z,94.35
2022-10-20T17:23:56.362Z,94.84
2022-10-20T17:26:24.871Z,94.86
2022-10-20T17:28:54.255Z,94.86
2022-10-20T17:31:22.505Z,94.67
2022-10-20T17:33:49.231Z,94.85
2022-10-20T17:36:15.871Z,95.09
2022-10-20T17:38:42.378Z,94.94
2022-10-20T17:41:13.638Z,95.00
2022-10-20T17:43:40.645Z,95.02
2022-10-20T17:46:09.812Z,94.93
2022-10-20T17:48:36.841Z,94.88
2022-10-20T17:51:07.958Z,94.89
2022-10-20T17:53:35.896Z,94.85
2022-10-20T17:56:04.126Z,94.77
2022-10-20T17:58:30.876Z,94.82
2022-10-20T18:01:10.720Z,94.72
2022-10-20T18:03:37.567Z,95.00
2022-10-20T18:06:09.631Z,95.05
2022-10-20T18:08:36.428Z,94.93
2022-10-20T18:11:03.325Z,94.99
2022-10-20T18:13:29.752Z,94.93
2022-10-20T18:15:56.133Z,94.99
2022-10-20T18:18:22.536Z,94.99
2022-10-20T18:20:56.239Z,95.04
2022-10-20T18:23:23.246Z,95.11
2022-10-20T18:25:49.649Z,95.31
2022-10-20T18:30:46.044Z,95.00
2022-10-20T18:33:12.518Z,95.05
2022-10-20T18:35:39.278Z,94.90
2022-10-20T18:38:07.740Z,94.76
2022-10-20T18:40:34.345Z,95.21
2022-10-20T18:43:00.763Z,95.16
2022-10-20T18:45:33.099Z,95.11
2022-10-20T18:47:59.652Z,95.09
2022-10-20T18:50:27.135Z,95.02
2022-10-20T18:52:53.581Z,95.09
2022-10-20T18:55:19.978Z,95.10
2022-10-20T18:57:46.346Z,95.08
2022-10-20T19:00:13.348Z,94.96
2022-10-20T19:02:39.762Z,95.17
2022-10-20T19:05:06.681Z,95.04
2022-10-20T19:07:37.836Z,94.98
2022-10-20T19:10:04.933Z,95.08
2022-10-20T19:12:31.344Z,95.08
2022-10-20T19:14:57.825Z,94.86
2022-10-20T19:17:24.269Z,94.99
2022-10-20T19:19:50.907Z,95.00
2022-10-20T19:22:17.455Z,94.79
2022-10-20T19:24:43.868Z,94.71
2022-10-20T19:27:28.030Z,94.87
2022-10-20T19:29:55.782Z,95.09
2022-10-20T19:32:22.280Z,94.86
2022-10-20T19:34:48.957Z,94.63
2022-10-20T19:37:15.323Z,94.44
2022-10-20T19:39:42.139Z,94.75
2022-10-20T19:42:21.315Z,94.77
2022-10-20T19:44:48.010Z,94.81
2022-10-20T19:47:14.505Z,94.99
2022-10-20T19:49:49.533Z,94.93
2022-10-20T19:52:15.984Z,94.63
2022-10-20T19:54:42.459Z,94.51
2022-10-20T19:57:08.857Z,94.42
2022-10-20T20:02:35.150Z,93.95
2022-10-20T20:05:07.864Z,93.90
2022-10-20T20:07:34.555Z,93.75
2022-10-20T20:10:01.254Z,93.97
2022-10-20T20:12:53.005Z,93.86
2022-10-20T20:15:19.511Z,94.11
2022-10-20T20:18:13.542Z,93.78
2022-10-20T20:20:41.258Z,93.82
2022-10-20T20:23:07.860Z,93.68
2022-10-20T20:25:42.307Z,93.60
2022-10-20T20:28:11.407Z,93.77
2022-10-20T20:31:11.496Z,93.67
2022-10-20T20:33:46.419Z,93.75
2022-10-20T20:39:58.794Z,93.95
2022-10-20T20:42:29.543Z,94.08
2022-10-20T20:44:56.177Z,93.83
2022-10-20T20:47:22.544Z,93.31
2022-10-20T20:49:48.982Z,93.88
2022-10-20T20:52:17.989Z,93.47
2022-10-20T20:54:47.317Z,93.51
2022-10-20T20:57:13.712Z,93.90
2022-10-20T20:59:40.178Z,93.70
2022-10-20T21:02:37.100Z,93.47
2022-10-20T21:07:39.116Z,93.74
2022-10-20T21:10:06.176Z,93.59
2022-10-20T21:12:34.574Z,93.30
2022-10-20T21:20:19.079Z,93.83
2022-10-20T21:22:54.395Z,93.57
2022-10-20T21:25:49.238Z,93.96
2022-10-20T21:28:16.774Z,94.16
2022-10-20T21:30:43.165Z,94.41
2022-10-20T21:33:09.598Z,94.14
2022-10-20T21:35:35.972Z,94.23
2022-10-20T21:38:02.413Z,94.23
2022-10-20T21:40:28.836Z,94.14
2022-10-20T21:42:55.196Z,94.21
2022-10-20T21:45:21.558Z,94.29
2022-10-20T21:47:50.804Z,94.30
2022-10-20T21:50:17.345Z,94.20
2022-10-20T21:52:43.722Z,94.34
2022-10-20T21:55:10.111Z,94.42
2022-10-20T21:57:36.753Z,94.41
2022-10-20T22:00:04.773Z,94.38
2022-10-20T22:02:31.197Z,94.88
2022-10-20T22:04:57.653Z,94.44
2022-10-20T22:07:24.398Z,94.66
2022-10-20T22:09:51.821Z,94.36
2022-10-20T22:12:18.243Z,94.51
2022-10-20T22:14:46.531Z,94.20
2022-10-20T22:17:16.556Z,94.51
2022-10-20T22:19:42.929Z,94.46
2022-10-20T22:22:09.295Z,94.31
2022-10-20T22:24:35.681Z,94.38
2022-10-20T22:27:02.223Z,94.18
2022-10-20T22:29:31.390Z,94.41
2022-10-20T22:31:57.758Z,94.16
2022-10-20T22:34:24.131Z,94.49
2022-10-20T22:36:50.473Z,94.47
2022-10-20T22:39:16.877Z,94.14
2022-10-20T22:41:43.410Z,94.35
2022-10-20T22:44:09.893Z,94.18
2022-10-20T22:46:38.651Z,94.06
2022-10-20T22:49:04.997Z,94.19
2022-10-20T22:51:31.391Z,94.21
2022-10-20T22:53:57.877Z,94.17
2022-10-20T22:56:24.372Z,94.25
2022-10-20T22:58:52.764Z,94.35
2022-10-20T23:01:21.036Z,94.32
2022-10-20T23:03:47.636Z,94.33
2022-10-20T23:06:16.423Z,94.28
2022-10-20T23:08:47.889Z,94.17
2022-10-20T23:11:15.277Z,94.34
2022-10-20T23:13:41.707Z,94.34
2022-10-20T23:16:08.490Z,94.45
2022-10-20T23:18:34.920Z,94.60
2022-10-20T23:21:01.326Z,94.21
2022-10-20T23:23:27.719Z,94.25
2022-10-20T23:25:54.106Z,94.40
2022-10-20T23:28:20.681Z,94.51
2022-10-20T23:30:47.664Z,94.44
2022-10-20T23:33:14.066Z,94.41
2022-10-20T23:35:40.683Z,94.38
2022-10-20T23:38:09.240Z,94.27
2022-10-20T23:40:35.844Z,94.63
2022-10-20T23:43:02.234Z,94.20
2022-10-20T23:45:28.632Z,94.32
2022-10-20T23:47:55.021Z,94.59
2022-10-20T23:50:23.332Z,94.10
2022-10-20T23:52:49.768Z,94.65
2022-10-20T23:55:16.283Z,94.13
2022-10-20T23:57:42.662Z,94.14
